createdAt,value
2023-07-03T00:00:05.784Z,437.4
2023-07-03T00:01:48.125Z,436.4
2023-07-03T00:03:31.820Z,435.8
2023-07-03T00:05:15.598Z,435.4
2023-07-03T00:06:59.219Z,437
2023-07-03T00:08:42.937Z,437.2
2023-07-03T00:10:26.625Z,439.1
2023-07-03T00:12:10.359Z,439.1
2023-07-03T00:13:54.055Z,438.5
2023-07-03T00:15:37.777Z,438.5
2023-07-03T00:17:21.454Z,442.2
2023-07-03T00:19:05.123Z,442.9
2023-07-03T00:20:48.857Z,441.7
2023-07-03T00:22:32.678Z,441.5
2023-07-03T00:24:16.269Z,443.7
2023-07-03T00:25:59.975Z,444.9
2023-07-03T00:27:43.674Z,444.9
2023-07-03T00:29:27.415Z,444.9
2023-07-03T00:31:11.117Z,443.8
2023-07-03T00:32:54.821Z,444.2
2023-07-03T00:34:38.552Z,443.2
2023-07-03T00:36:22.188Z,442.1
2023-07-03T00:38:05.885Z,444.6
2023-07-03T00:39:49.596Z,443.2
2023-07-03T00:41:33.321Z,443.2
2023-07-03T00:43:16.996Z,442.6
2023-07-03T00:45:00.704Z,442.1
2023-07-03T00:46:44.411Z,442.8
2023-07-03T00:48:28.115Z,446.7
2023-07-03T00:50:11.793Z,450.3
2023-07-03T00:51:55.540Z,451.5
2023-07-03T00:53:39.212Z,451
2023-07-03T00:55:22.918Z,453.8
2023-07-03T00:57:06.622Z,452.6
2023-07-03T00:58:50.321Z,449.8
2023-07-03T01:00:34.019Z,448.5
2023-07-03T01:02:17.717Z,447
2023-07-03T01:04:01.519Z,445.5
2023-07-03T01:05:45.110Z,444.6
2023-07-03T01:07:28.858Z,444.2
2023-07-03T01:09:12.528Z,442.3
2023-07-03T01:10:56.239Z,442.9
2023-07-03T01:12:39.942Z,441.1
2023-07-03T01:14:23.633Z,443.1
2023-07-03T01:16:07.341Z,442.5
2023-07-03T01:17:51.056Z,443.4
2023-07-03T01:19:34.776Z,443.8
2023-07-03T01:21:18.453Z,445.1
2023-07-03T01:23:02.215Z,445.5
2023-07-03T01:24:45.854Z,446.6
2023-07-03T01:26:29.576Z,448.2
2023-07-03T01:28:13.281Z,448.2
2023-07-03T01:29:56.994Z,447.4
2023-07-03T01:31:40.680Z,447.9
2023-07-03T01:33:24.400Z,451
2023-07-03T01:35:08.116Z,452.2
2023-07-03T01:36:51.833Z,451.4
2023-07-03T01:38:35.491Z,451.7
2023-07-03T01:40:19.215Z,450.4
2023-07-03T01:42:02.939Z,452.7
2023-07-03T01:43:46.610Z,454
2023-07-03T01:45:30.457Z,453.2
2023-07-03T01:47:14.008Z,454.1
2023-07-03T01:48:57.717Z,453.3
2023-07-03T01:50:41.405Z,455.1
2023-07-03T01:52:25.118Z,454.9
2023-07-03T01:54:08.816Z,452.7
2023-07-03T01:55:52.512Z,453
2023-07-03T01:57:36.363Z,453.8
2023-07-03T01:59:19.946Z,453.4
2023-07-03T02:01:03.628Z,452.4
2023-07-03T02:02:47.330Z,452.9
2023-07-03T02:04:31.019Z,454.8
2023-07-03T02:06:14.729Z,453.7
2023-07-03T02:07:58.447Z,454.7
2023-07-03T02:09:42.206Z,454.2
2023-07-03T02:11:25.868Z,453.4
2023-07-03T02:13:09.561Z,453
2023-07-03T02:14:53.282Z,453.3
2023-07-03T02:16:36.937Z,453
2023-07-03T02:18:20.648Z,454.4
2023-07-03T02:20:04.360Z,457.1
2023-07-03T02:21:48.066Z,459.6
2023-07-03T02:23:31.761Z,460.1
2023-07-03T02:25:15.494Z,461.4
2023-07-03T02:26:59.167Z,458.8
2023-07-03T02:28:42.883Z,459.6
2023-07-03T02:30:26.652Z,458.1
2023-07-03T02:32:10.273Z,460.2
2023-07-03T02:33:53.974Z,460.8
2023-07-03T02:35:37.718Z,461.3
2023-07-03T02:37:21.402Z,461.9
2023-07-03T02:39:05.140Z,461.6
2023-07-03T02:40:48.805Z,463.8
2023-07-03T02:42:32.502Z,463
2023-07-03T02:44:16.203Z,463.9
2023-07-03T02:45:59.914Z,464.6
2023-07-03T02:47:43.616Z,465.5
2023-07-03T02:49:27.313Z,464.2
2023-07-03T02:51:11.109Z,461.9
2023-07-03T02:52:54.721Z,462.4
2023-07-03T02:54:38.431Z,459.6
2023-07-03T02:56:22.151Z,457.8
2023-07-03T02:58:05.840Z,457.7
2023-07-03T02:59:49.541Z,460.2
2023-07-03T03:01:33.280Z,460.5
2023-07-03T03:03:16.955Z,460.3
2023-07-03T03:05:00.659Z,460.8
2023-07-03T03:06:44.351Z,461.3
2023-07-03T03:08:28.069Z,462
2023-07-03T03:10:11.751Z,460.9
2023-07-03T03:11:55.467Z,459.3
2023-07-03T03:13:39.172Z,455.1
2023-07-03T03:15:22.869Z,451.8
2023-07-03T03:17:06.582Z,449.6
2023-07-03T03:18:50.266Z,450.7
2023-07-03T03:20:34.069Z,451.1
2023-07-03T03:22:17.676Z,453.1
2023-07-03T03:24:01.394Z,449.4
2023-07-03T03:25:45.073Z,449.5
2023-07-03T03:27:28.787Z,447.5
2023-07-03T03:29:12.496Z,447.9
2023-07-03T03:30:56.192Z,448.1
2023-07-03T03:32:39.987Z,448.6
2023-07-03T03:34:23.730Z,448.2
2023-07-03T03:36:07.331Z,447.1
2023-07-03T03:37:50.996Z,447.1
2023-07-03T03:39:34.685Z,446.8
2023-07-03T03:41:18.513Z,447.4
2023-07-03T03:43:02.167Z,447.2
2023-07-03T03:44:45.813Z,444.9
2023-07-03T03:46:29.518Z,444.1
2023-07-03T03:48:13.260Z,442.7
2023-07-03T03:49:56.998Z,440.5
2023-07-03T03:51:40.648Z,438.7
2023-07-03T03:53:24.438Z,436.9
2023-07-03T03:55:08.041Z,437.1
2023-07-03T03:56:51.771Z,436.3
2023-07-03T03:58:35.451Z,434.1
2023-07-03T04:00:19.151Z,433.6
2023-07-03T04:02:02.932Z,431
2023-07-03T04:03:46.540Z,430.7
2023-07-03T04:05:30.285Z,431.6
2023-07-03T04:07:14.072Z,431.8
2023-07-03T04:08:57.780Z,433.4
2023-07-03T04:10:41.351Z,435.4
2023-07-03T04:12:25.058Z,436
2023-07-03T04:14:08.753Z,435.8
2023-07-03T04:15:52.472Z,433.3
2023-07-03T04:17:36.245Z,430
2023-07-03T04:19:19.861Z,428.5
2023-07-03T04:21:03.569Z,427
2023-07-03T04:22:47.270Z,423.3
2023-07-03T04:24:31.018Z,421.5
2023-07-03T04:26:14.691Z,423.7
2023-07-03T04:27:58.404Z,426.2
2023-07-03T04:29:42.087Z,425.5
2023-07-03T04:31:25.791Z,423
2023-07-03T04:33:09.479Z,423
2023-07-03T04:34:53.265Z,425.5
2023-07-03T04:36:37.064Z,425.2
2023-07-03T04:38:20.579Z,427.8
2023-07-03T04:40:04.331Z,429.2
2023-07-03T04:41:48.034Z,431
2023-07-03T04:43:31.748Z,430.4
2023-07-03T04:45:15.430Z,430.8
2023-07-03T04:46:59.200Z,429.9
2023-07-03T04:48:42.810Z,430.3
2023-07-03T04:50:26.526Z,430.2
2023-07-03T04:52:10.208Z,430.2
2023-07-03T04:53:53.891Z,430.9
2023-07-03T04:55:37.580Z,430.5
2023-07-03T04:57:21.318Z,429
2023-07-03T04:59:05.015Z,428.7
2023-07-03T05:00:48.719Z,426.9
2023-07-03T05:02:32.410Z,427.1
2023-07-03T05:04:16.096Z,428.3
2023-07-03T05:05:59.818Z,428.1
2023-07-03T05:07:43.497Z,427.4
2023-07-03T05:09:27.225Z,426.8
2023-07-03T05:11:10.974Z,426.3
2023-07-03T05:12:54.620Z,427.6
2023-07-03T05:14:38.387Z,425.9
2023-07-03T05:16:22.046Z,423.1
2023-07-03T05:18:05.786Z,421.2
2023-07-03T05:19:49.417Z,420.8
2023-07-03T05:21:33.164Z,418.5
2023-07-03T05:23:16.811Z,416.1
2023-07-03T05:25:00.688Z,417.7
2023-07-03T05:26:44.227Z,417.2
2023-07-03T05:28:28.011Z,416.4
2023-07-03T05:30:11.615Z,413.4
2023-07-03T05:31:55.320Z,412.3
2023-07-03T05:33:39.069Z,411.5
2023-07-03T05:35:22.728Z,410.6
2023-07-03T05:37:06.547Z,412.2
2023-07-03T05:38:50.117Z,415.7
2023-07-03T05:40:33.879Z,416.6
2023-07-03T05:42:17.562Z,414.8
2023-07-03T05:44:01.229Z,413.8
2023-07-03T05:45:44.991Z,414.1
2023-07-03T05:47:28.767Z,412.5
2023-07-03T05:49:12.433Z,413.6
2023-07-03T05:50:56.033Z,412
2023-07-03T05:52:39.721Z,412
2023-07-03T05:54:23.485Z,414.8
2023-07-03T05:56:07.151Z,416.9
2023-07-03T05:57:50.908Z,418.5
2023-07-03T05:59:34.661Z,418.8
2023-07-03T06:01:18.323Z,417.6
2023-07-03T06:03:01.960Z,415.2
2023-07-03T06:04:45.676Z,415.4
2023-07-03T06:06:29.421Z,413.9
2023-07-03T06:08:13.167Z,414.9
2023-07-03T06:09:56.903Z,413.9
2023-07-03T06:11:40.499Z,414.4
2023-07-03T06:13:24.188Z,417.7
2023-07-03T06:15:07.858Z,421.9
2023-07-03T06:16:51.791Z,423.2
2023-07-03T06:18:35.395Z,423
2023-07-03T06:20:19.048Z,423.2
2023-07-03T06:22:02.826Z,423.4
2023-07-03T06:23:46.558Z,422.5
2023-07-03T06:25:30.153Z,420.4
2023-07-03T06:27:13.773Z,422.2
2023-07-03T06:28:57.581Z,424.9
2023-07-03T06:30:41.331Z,425.4
2023-07-03T06:32:24.899Z,425.1
2023-07-03T06:34:08.654Z,424
2023-07-03T06:35:52.324Z,427.4
2023-07-03T06:37:36.138Z,426.5
2023-07-03T06:39:19.710Z,434.6
2023-07-03T06:41:03.458Z,433
2023-07-03T06:42:47.105Z,433.5
2023-07-03T06:44:30.902Z,439.4
2023-07-03T06:46:14.509Z,438.2
2023-07-03T06:47:58.215Z,441.5
2023-07-03T06:49:41.981Z,443.1
2023-07-03T06:51:25.618Z,440.7
2023-07-03T06:53:09.402Z,441
2023-07-03T06:54:53.002Z,439.2
2023-07-03T06:56:36.821Z,436.6
2023-07-03T06:58:20.417Z,435.7
2023-07-03T07:00:05.483Z,435.9
2023-07-03T07:01:47.821Z,431.6
2023-07-03T07:03:31.607Z,429.2
2023-07-03T07:05:15.285Z,425.1
2023-07-03T07:06:58.981Z,426.8
2023-07-03T07:08:42.641Z,428
2023-07-03T07:10:26.357Z,428.8
2023-07-03T07:12:10.045Z,427.3
2023-07-03T07:13:53.810Z,428.4
2023-07-03T07:15:37.433Z,430.7
2023-07-03T07:17:21.190Z,432.7
2023-07-03T07:19:04.857Z,426.5
2023-07-03T07:20:48.625Z,424.6
2023-07-03T07:22:32.259Z,423.3
2023-07-03T07:24:15.960Z,421
2023-07-03T07:25:59.709Z,419
2023-07-03T07:27:43.470Z,418.5
2023-07-03T07:29:27.192Z,420.2
2023-07-03T07:31:10.770Z,420.4
2023-07-03T07:32:54.689Z,422.7
2023-07-03T07:34:38.179Z,422
2023-07-03T07:36:22.031Z,423.8
2023-07-03T07:38:05.670Z,427
2023-07-03T07:39:49.435Z,432.2
2023-07-03T07:41:32.973Z,438.3
2023-07-03T07:43:16.672Z,441
2023-07-03T07:45:00.470Z,441.1
2023-07-03T07:46:44.272Z,444.7
2023-07-03T07:48:27.959Z,448.6
2023-07-03T07:50:11.598Z,451.4
2023-07-03T07:51:55.369Z,453.4
2023-07-03T07:53:38.927Z,455
2023-07-03T07:55:22.731Z,455
2023-07-03T07:57:06.365Z,453.5
2023-07-03T07:58:50.016Z,451.8
2023-07-03T08:00:33.885Z,451.2
2023-07-03T08:02:17.402Z,453.7
2023-07-03T08:04:01.348Z,455.8
2023-07-03T08:05:44.852Z,452.5
2023-07-03T08:07:28.514Z,450.5
2023-07-03T08:09:12.263Z,448.6
2023-07-03T08:10:55.951Z,447.6
2023-07-03T08:12:39.647Z,446.9
2023-07-03T08:14:23.326Z,447.1
2023-07-03T08:16:07.155Z,445.1
2023-07-03T08:17:50.793Z,447.2
2023-07-03T08:19:34.603Z,448.2
2023-07-03T08:21:18.201Z,448.2
2023-07-03T08:23:01.872Z,449.1
2023-07-03T08:24:45.546Z,449.9
2023-07-03T08:26:29.275Z,452.3
2023-07-03T08:28:12.971Z,453.2
2023-07-03T08:29:56.713Z,453.8
2023-07-03T08:31:40.352Z,454.8
2023-07-03T08:33:24.075Z,454.1
2023-07-03T08:35:07.767Z,457.3
2023-07-03T08:36:51.462Z,463.4
2023-07-03T08:38:35.433Z,471.3
2023-07-03T08:40:18.914Z,484.6
2023-07-03T08:42:02.678Z,501.3
2023-07-03T08:43:46.322Z,503.2
2023-07-03T08:45:30.033Z,507.2
2023-07-03T08:47:13.714Z,511
2023-07-03T08:48:57.569Z,510.2
2023-07-03T08:50:41.100Z,505.6
2023-07-03T08:52:24.900Z,505
2023-07-03T08:54:08.532Z,502.3
2023-07-03T08:55:52.231Z,496
2023-07-03T08:57:35.892Z,491.4
2023-07-03T08:59:19.656Z,487.6
2023-07-03T09:01:03.400Z,486.3
2023-07-03T09:02:47.013Z,485.8
2023-07-03T09:04:30.805Z,487.4
2023-07-03T09:06:14.504Z,488.1
2023-07-03T09:07:58.247Z,487.5
2023-07-03T09:09:41.844Z,484.9
2023-07-03T09:11:25.569Z,485.6
2023-07-03T09:13:09.338Z,484.5
2023-07-03T09:14:52.902Z,481.9
2023-07-03T09:16:36.730Z,479.6
2023-07-03T09:18:20.451Z,481.9
2023-07-03T09:20:04.015Z,478.1
2023-07-03T09:21:47.759Z,477.8
2023-07-03T09:23:31.521Z,478.1
2023-07-03T09:25:15.149Z,475.8
2023-07-03T09:26:58.819Z,477.3
2023-07-03T09:28:42.566Z,477.5
2023-07-03T09:30:26.306Z,476.1
2023-07-03T09:32:09.936Z,477.3
2023-07-03T09:33:53.758Z,476.9
2023-07-03T09:35:37.350Z,476.7
2023-07-03T09:37:21.157Z,472.8
2023-07-03T09:39:04.747Z,472.1
2023-07-03T09:40:48.423Z,471.2
2023-07-03T09:42:32.139Z,473.1
2023-07-03T09:44:15.876Z,471
2023-07-03T09:45:59.635Z,472.8
2023-07-03T09:47:43.236Z,474.4
2023-07-03T09:49:27.025Z,472.7
2023-07-03T09:51:10.732Z,472.3
2023-07-03T09:52:54.358Z,472.4
2023-07-03T09:54:38.074Z,471.9
2023-07-03T09:56:21.752Z,470.9
2023-07-03T09:58:05.461Z,469.1
2023-07-03T09:59:49.181Z,467.4
2023-07-03T10:01:32.864Z,464.8
2023-07-03T10:03:16.573Z,463.3
2023-07-03T10:05:00.281Z,464
2023-07-03T10:06:43.962Z,464.4
2023-07-03T10:08:27.668Z,462.1
2023-07-03T10:10:11.401Z,459.6
2023-07-03T10:11:55.071Z,457.1
2023-07-03T10:13:38.779Z,461.6
2023-07-03T10:15:22.460Z,471
2023-07-03T10:17:06.376Z,477.2
2023-07-03T10:18:50.119Z,475.6
2023-07-03T10:20:33.873Z,471.6
2023-07-03T10:24:00.977Z,472.7
2023-07-03T10:25:44.690Z,472.3
2023-07-03T10:27:28.373Z,469
2023-07-03T10:29:12.092Z,466.2
2023-07-03T10:30:55.804Z,466.9
2023-07-03T10:32:39.486Z,466.4
2023-07-03T10:34:23.194Z,465.4
2023-07-03T10:36:07.083Z,464.2
2023-07-03T10:37:50.807Z,467
2023-07-03T10:39:34.537Z,467.3
2023-07-03T10:41:18.068Z,465.7
2023-07-03T10:43:01.790Z,460.4
2023-07-03T10:44:45.461Z,459.2
2023-07-03T10:46:29.122Z,461.5
2023-07-03T10:48:12.828Z,464.2
2023-07-03T10:49:56.528Z,462.7
2023-07-03T10:51:40.393Z,463.6
2023-07-03T10:53:24.137Z,465.8
2023-07-03T10:55:07.644Z,466.3
2023-07-03T10:56:51.342Z,464.9
2023-07-03T10:58:35.035Z,463.1
2023-07-03T11:00:18.748Z,461.5
2023-07-03T11:02:02.683Z,460.5
2023-07-03T11:03:46.274Z,460.3
2023-07-03T11:05:29.984Z,458.5
2023-07-03T11:07:13.640Z,459.4
2023-07-03T11:08:57.269Z,457.5
2023-07-03T11:10:40.935Z,456.4
2023-07-03T11:12:24.674Z,453.4
2023-07-03T11:14:08.413Z,451.7
2023-07-03T11:15:52.215Z,453.2
2023-07-03T11:17:35.748Z,454
2023-07-03T11:19:19.450Z,452.1
2023-07-03T11:21:03.157Z,451.2
2023-07-03T11:22:46.866Z,452.7
2023-07-03T11:24:30.537Z,460
2023-07-03T11:26:14.265Z,462.2
2023-07-03T11:27:57.966Z,460.1
2023-07-03T11:29:41.827Z,460.1
2023-07-03T11:31:25.551Z,461.1
2023-07-03T11:33:09.051Z,463
2023-07-03T11:34:52.766Z,461.3
2023-07-03T11:36:36.482Z,463.3
2023-07-03T11:38:20.177Z,469.2
2023-07-03T11:40:03.891Z,471.4
2023-07-03T11:41:47.581Z,474.1
2023-07-03T11:45:14.977Z,485.1
2023-07-03T11:46:58.688Z,493.1
2023-07-03T11:48:42.394Z,498.3
2023-07-03T11:50:26.099Z,504
2023-07-03T11:52:09.782Z,507.9
2023-07-03T11:53:53.478Z,512.5
2023-07-03T11:55:37.203Z,513.3
2023-07-03T11:57:20.913Z,510.8
2023-07-03T11:59:04.599Z,509.1
2023-07-03T12:00:48.308Z,504
2023-07-03T12:02:32.053Z,498.5
2023-07-03T12:04:15.900Z,495.6
2023-07-03T12:05:59.412Z,488.9
2023-07-03T12:07:43.122Z,483.5
2023-07-03T12:09:26.816Z,478.7
2023-07-03T12:11:10.544Z,472.1
2023-07-03T12:12:54.233Z,473.2
2023-07-03T12:14:37.937Z,471.5
2023-07-03T12:16:21.644Z,471.6
2023-07-03T12:18:05.669Z,471
2023-07-03T12:19:49.052Z,467.4
2023-07-03T12:21:32.735Z,463
2023-07-03T12:23:16.447Z,460.6
2023-07-03T12:25:00.142Z,456.5
2023-07-03T12:26:43.857Z,452.6
2023-07-03T12:28:27.561Z,448.8
2023-07-03T12:30:11.251Z,445
2023-07-03T12:31:54.961Z,444.5
2023-07-03T12:33:38.655Z,446.1
2023-07-03T12:35:22.370Z,449.6
2023-07-03T12:37:06.074Z,455.6
2023-07-03T12:38:49.779Z,466.9
2023-07-03T12:40:33.471Z,472
2023-07-03T12:42:17.171Z,478.9
2023-07-03T12:44:00.887Z,480.6
2023-07-03T12:45:44.575Z,482.4
2023-07-03T12:47:28.301Z,486.4
2023-07-03T12:49:11.992Z,489
2023-07-03T12:50:55.704Z,485.7
2023-07-03T12:52:39.426Z,484.1
2023-07-03T12:54:23.253Z,483.7
2023-07-03T12:56:06.809Z,486.1
2023-07-03T12:57:50.507Z,486.4
2023-07-03T12:59:34.229Z,480.9
2023-07-03T13:01:17.925Z,478.4
2023-07-03T13:03:01.601Z,470.1
2023-07-03T13:04:45.307Z,464
2023-07-03T13:06:29.019Z,459.7
2023-07-03T13:08:12.755Z,456.9
2023-07-03T13:09:56.420Z,455
2023-07-03T13:11:40.123Z,451.6
2023-07-03T13:13:23.830Z,449
2023-07-03T13:15:07.523Z,446.2
2023-07-03T13:16:51.204Z,444.1
2023-07-03T13:18:34.936Z,440.6
2023-07-03T13:20:18.630Z,439.1
2023-07-03T13:22:02.343Z,435.9
2023-07-03T13:23:46.025Z,435.1
2023-07-03T13:25:29.854Z,436.4
2023-07-03T13:27:13.505Z,437.3
2023-07-03T13:28:57.362Z,436
2023-07-03T13:30:40.838Z,438.7
2023-07-03T13:32:24.549Z,433.4
2023-07-03T13:34:08.239Z,428.1
2023-07-03T13:35:51.935Z,430.8
2023-07-03T13:37:35.646Z,431.6
2023-07-03T13:39:19.343Z,430.1
2023-07-03T13:41:03.088Z,430.6
2023-07-03T13:42:46.760Z,431.7
2023-07-03T13:44:30.581Z,431.7
2023-07-03T13:46:14.150Z,430.6
2023-07-03T13:47:57.859Z,432
2023-07-03T13:49:41.575Z,432.8
2023-07-03T13:51:25.268Z,430.1
2023-07-03T13:53:08.956Z,428.7
2023-07-03T13:54:52.681Z,426.9
2023-07-03T13:56:36.370Z,426.9
2023-07-03T13:58:20.085Z,427.8
2023-07-03T14:00:03.805Z,426.6
2023-07-03T14:01:47.460Z,424.2
2023-07-03T14:03:31.182Z,422.8
2023-07-03T14:05:14.892Z,422.8
2023-07-03T14:06:58.575Z,421.5
2023-07-03T14:08:42.287Z,421.7
2023-07-03T14:10:26.011Z,420.5
2023-07-03T14:12:09.696Z,419.6
2023-07-03T14:13:53.404Z,422.1
2023-07-03T14:15:37.098Z,423.5
2023-07-03T14:17:20.793Z,423.7
2023-07-03T14:19:04.500Z,421.5
2023-07-03T14:20:48.216Z,421.3
2023-07-03T14:22:31.896Z,423.6
2023-07-03T14:24:15.609Z,424.3
2023-07-03T14:25:59.297Z,423.6
2023-07-03T14:27:43.029Z,425
2023-07-03T14:29:26.709Z,423.2
2023-07-03T14:31:10.457Z,422.1
2023-07-03T14:32:54.131Z,420.3
2023-07-03T14:34:37.882Z,421.2
2023-07-03T14:36:21.514Z,421.8
2023-07-03T14:38:05.203Z,422.7
2023-07-03T14:39:48.914Z,421.9
2023-07-03T14:41:32.631Z,423.3
2023-07-03T14:43:16.290Z,425.5
2023-07-03T14:45:00.010Z,425.4
2023-07-03T14:46:43.732Z,423.4
2023-07-03T14:48:27.428Z,424.6
2023-07-03T14:50:11.115Z,427.4
2023-07-03T14:51:54.822Z,430.9
2023-07-03T14:53:38.533Z,433.4
2023-07-03T14:55:22.224Z,435.9
2023-07-03T14:57:05.936Z,435
2023-07-03T14:58:49.627Z,440.8
2023-07-03T15:00:33.338Z,445.1
2023-07-03T15:02:17.050Z,446.2
2023-07-03T15:04:00.737Z,447.8
2023-07-03T15:05:44.451Z,448.6
2023-07-03T15:07:28.160Z,448.5
2023-07-03T15:09:11.869Z,449.3
2023-07-03T15:10:55.569Z,446.5
2023-07-03T15:12:39.267Z,447.9
2023-07-03T15:14:22.976Z,447.2
2023-07-03T15:16:06.680Z,451.1
2023-07-03T15:17:50.401Z,455.5
2023-07-03T15:19:34.073Z,459.5
2023-07-03T15:21:17.792Z,461.6
2023-07-03T15:23:01.503Z,463.2
2023-07-03T15:24:45.190Z,467.4
2023-07-03T15:26:28.890Z,468.3
2023-07-03T15:28:12.598Z,471.2
2023-07-03T15:29:56.301Z,475
2023-07-03T15:31:39.993Z,473.7
2023-07-03T15:33:23.680Z,468.4
2023-07-03T15:35:07.413Z,462.7
2023-07-03T15:36:51.105Z,458.3
2023-07-03T15:38:34.801Z,455.1
2023-07-03T15:40:18.503Z,453
2023-07-03T15:42:02.222Z,449.1
2023-07-03T15:43:45.917Z,446.1
2023-07-03T15:45:29.612Z,445.3
2023-07-03T15:47:13.297Z,444.9
2023-07-03T15:48:56.996Z,443.4
2023-07-03T15:50:40.720Z,442
2023-07-03T15:52:24.402Z,440
2023-07-03T15:54:08.112Z,439.7
2023-07-03T15:55:51.811Z,440.8
2023-07-03T15:57:35.510Z,439.5
2023-07-03T15:59:19.221Z,442.5
2023-07-03T16:01:02.920Z,442.3
2023-07-03T16:02:46.629Z,438.8
2023-07-03T16:04:30.366Z,437.7
2023-07-03T16:06:14.016Z,435.3
2023-07-03T16:07:57.727Z,433.3
2023-07-03T16:09:41.438Z,433.3
2023-07-03T16:11:25.142Z,433.4
2023-07-03T16:13:08.866Z,432.5
2023-07-03T16:14:52.545Z,431.4
2023-07-03T16:16:36.240Z,431.8
2023-07-03T16:18:19.956Z,433.7
2023-07-03T16:20:03.657Z,439.4
2023-07-03T16:21:47.355Z,443.4
2023-07-03T16:23:31.046Z,444.2
2023-07-03T16:25:14.748Z,444.9
2023-07-03T16:26:58.467Z,443.5
2023-07-03T16:28:42.174Z,442.8
2023-07-03T16:30:25.924Z,445.8
2023-07-03T16:32:09.560Z,444.6
2023-07-03T16:33:53.259Z,444.3
2023-07-03T16:35:36.949Z,445.8
2023-07-03T16:37:20.651Z,443.9
2023-07-03T16:39:04.364Z,442.8
2023-07-03T16:40:48.063Z,442.7
2023-07-03T16:42:31.802Z,442.1
2023-07-03T16:44:15.477Z,447.3
2023-07-03T16:45:59.186Z,452
2023-07-03T16:47:42.881Z,457.1
2023-07-03T16:49:26.580Z,462.9
2023-07-03T16:51:10.291Z,468.3
2023-07-03T16:52:53.998Z,476.1
2023-07-03T16:54:37.689Z,484.8
2023-07-03T16:56:21.419Z,495.2
2023-07-03T16:58:05.114Z,508.7
2023-07-03T16:59:48.791Z,518.8
2023-07-03T17:01:32.485Z,523.5
2023-07-03T17:03:16.205Z,529.3
2023-07-03T17:04:59.902Z,533.7
2023-07-03T17:06:43.601Z,539.9
2023-07-03T17:08:27.298Z,542.9
2023-07-03T17:10:11.013Z,545.1
2023-07-03T17:11:54.723Z,543.3
2023-07-03T17:13:38.387Z,544.6
2023-07-03T17:15:22.118Z,546.6
2023-07-03T17:17:05.839Z,542.9
2023-07-03T17:18:49.503Z,542.3
2023-07-03T17:20:33.206Z,544
2023-07-03T17:22:16.917Z,547.4
2023-07-03T17:24:00.616Z,547.7
2023-07-03T17:25:44.319Z,547.8
2023-07-03T17:27:28.012Z,550.5
2023-07-03T17:29:11.736Z,553.5
2023-07-03T17:30:55.439Z,553.5
2023-07-03T17:32:39.131Z,561.4
2023-07-03T17:34:22.850Z,563.7
2023-07-03T17:36:06.537Z,563.8
2023-07-03T17:37:50.235Z,563.4
2023-07-03T17:39:33.940Z,561.9
2023-07-03T17:41:17.656Z,563
2023-07-03T17:43:01.356Z,566.3
2023-07-03T17:44:45.057Z,568.2
2023-07-03T17:46:28.800Z,565.6
2023-07-03T17:48:12.485Z,561.4
2023-07-03T17:49:56.151Z,554.9
2023-07-03T17:51:39.862Z,554.2
2023-07-03T17:53:23.576Z,558.5
2023-07-03T17:55:07.279Z,557.3
2023-07-03T17:56:50.962Z,559.2
2023-07-03T17:58:34.658Z,560.6
2023-07-03T18:00:18.380Z,561.2
2023-07-03T18:02:02.055Z,563.8
2023-07-03T18:03:45.787Z,563.4
2023-07-03T18:05:29.486Z,562.8
2023-07-03T18:07:13.185Z,564.5
2023-07-03T18:08:56.884Z,569.3
2023-07-03T18:10:40.593Z,572.9
2023-07-03T18:12:24.291Z,576.7
2023-07-03T18:14:08.000Z,576.2
2023-07-03T18:15:51.679Z,576.5
2023-07-03T18:17:35.404Z,576
2023-07-03T18:19:19.085Z,572.4
2023-07-03T18:21:02.809Z,555.1
2023-07-03T18:22:46.502Z,550.6
2023-07-03T18:24:30.204Z,544.9
2023-07-03T18:26:13.936Z,530.7
2023-07-03T18:27:57.610Z,521
2023-07-03T18:29:41.311Z,501.6
2023-07-03T18:31:25.018Z,476.9
2023-07-03T18:33:08.730Z,465.4
2023-07-03T18:34:52.421Z,461.8
2023-07-03T18:36:36.131Z,458.4
2023-07-03T18:38:19.829Z,455.8
2023-07-03T18:40:03.537Z,452.7
2023-07-03T18:41:47.222Z,450.1
2023-07-03T18:43:30.940Z,448.6
2023-07-03T18:45:14.626Z,448.3
2023-07-03T18:46:58.344Z,446.2
2023-07-03T18:48:42.030Z,443.7
2023-07-03T18:50:25.741Z,443.8
2023-07-03T18:52:09.452Z,442.7
2023-07-03T18:53:53.197Z,442
2023-07-03T18:55:36.855Z,444.2
2023-07-03T18:57:20.552Z,446.1
2023-07-03T18:59:04.270Z,447.3
2023-07-03T19:00:47.967Z,446.4
2023-07-03T19:02:31.673Z,447.6
2023-07-03T19:04:15.352Z,448.5
2023-07-03T19:05:59.051Z,449.7
2023-07-03T19:07:42.746Z,448.8
2023-07-03T19:09:26.490Z,448
2023-07-03T19:11:10.176Z,447.7
2023-07-03T19:12:53.960Z,448
2023-07-03T19:14:37.579Z,450
2023-07-03T19:16:21.383Z,452.9
2023-07-03T19:18:05.525Z,454.3
2023-07-03T19:19:48.689Z,452.6
2023-07-03T19:21:32.424Z,453.3
2023-07-03T19:23:16.089Z,453.3
2023-07-03T19:24:59.783Z,450.5
2023-07-03T19:26:43.537Z,447.8
2023-07-03T19:28:27.270Z,446.5
2023-07-03T19:30:10.925Z,449.7
2023-07-03T19:31:54.646Z,454.3
2023-07-03T19:33:38.327Z,455.9
2023-07-03T19:35:21.995Z,457.2
2023-07-03T19:37:05.723Z,456.9
2023-07-03T19:38:49.403Z,453.5
2023-07-03T19:40:33.264Z,450.7
2023-07-03T19:42:16.869Z,448.7
2023-07-03T19:44:00.512Z,443
2023-07-03T19:45:44.222Z,437.7
2023-07-03T19:47:27.913Z,432.9
2023-07-03T19:49:11.636Z,429.5
2023-07-03T19:50:55.322Z,424.7
2023-07-03T19:52:39.031Z,420.6
2023-07-03T19:54:22.738Z,418.2
2023-07-03T19:56:06.436Z,417.3
2023-07-03T19:57:50.136Z,417.1
2023-07-03T19:59:33.833Z,420.5
2023-07-03T20:01:17.533Z,422.1
2023-07-03T20:03:01.263Z,418.6
2023-07-03T20:04:44.961Z,420.1
2023-07-03T20:06:28.668Z,419.1
2023-07-03T20:08:12.349Z,417.9
2023-07-03T20:09:56.077Z,416.7
2023-07-03T20:11:39.771Z,417.4
2023-07-03T20:13:23.451Z,418.7
2023-07-03T20:15:07.148Z,418.8
2023-07-03T20:16:50.862Z,419.8
2023-07-03T20:18:34.617Z,421.2
2023-07-03T20:20:18.267Z,435.3
2023-07-03T20:22:02.014Z,490
2023-07-03T20:23:45.666Z,504.5
2023-07-03T20:25:29.377Z,514.7
2023-07-03T20:27:13.084Z,521.1
2023-07-03T20:28:56.793Z,523.4
2023-07-03T20:30:40.486Z,528.1
2023-07-03T20:32:24.176Z,534.2
2023-07-03T20:34:07.917Z,536
2023-07-03T20:35:51.597Z,535.8
2023-07-03T20:37:35.318Z,534.9
2023-07-03T20:39:19.022Z,538.9
2023-07-03T20:41:02.742Z,544.9
2023-07-03T20:42:46.388Z,546.6
2023-07-03T20:44:30.085Z,546.8
2023-07-03T20:46:13.846Z,547.5
2023-07-03T20:47:57.518Z,548.7
2023-07-03T20:49:41.277Z,552.1
2023-07-03T20:51:24.919Z,556.5
2023-07-03T20:53:08.608Z,557.6
2023-07-03T20:54:52.303Z,557.6
2023-07-03T20:56:36.116Z,560.1
2023-07-03T20:58:19.692Z,559
2023-07-03T21:00:03.414Z,556.9
2023-07-03T21:01:47.126Z,550.7
2023-07-03T21:03:30.828Z,544.6
2023-07-03T21:05:14.542Z,537.8
2023-07-03T21:06:58.228Z,533.3
2023-07-03T21:08:41.968Z,527.8
2023-07-03T21:10:25.649Z,524.6
2023-07-03T21:12:09.322Z,524.2
2023-07-03T21:13:53.030Z,524.3
2023-07-03T21:17:20.435Z,521.5
2023-07-03T21:19:04.161Z,520
2023-07-03T21:20:47.821Z,518.4
2023-07-03T21:22:31.543Z,518
2023-07-03T21:24:15.233Z,517.4
2023-07-03T21:25:58.938Z,516.4
2023-07-03T21:27:42.638Z,517.6
2023-07-03T21:29:26.359Z,514.7
2023-07-03T21:31:10.043Z,515.5
2023-07-03T21:32:53.804Z,513.5
2023-07-03T21:34:37.485Z,510.3
2023-07-03T21:36:21.250Z,506.7
2023-07-03T21:38:04.877Z,505.2
2023-07-03T21:39:48.582Z,504.7
2023-07-03T21:41:32.261Z,504.9
2023-07-03T21:43:15.971Z,502.1
2023-07-03T21:44:59.663Z,499
2023-07-03T21:46:43.364Z,498.4
2023-07-03T21:48:27.076Z,498.2
2023-07-03T21:50:10.784Z,499.1
2023-07-03T21:51:54.459Z,499.2
2023-07-03T21:53:38.176Z,496.9
2023-07-03T21:55:21.885Z,497
2023-07-03T21:57:05.575Z,497.6
2023-07-03T21:58:49.267Z,499.4
2023-07-03T22:00:32.981Z,501.6
2023-07-03T22:02:16.681Z,500.3
2023-07-03T22:04:00.400Z,499.1
2023-07-03T22:05:44.087Z,497.5
2023-07-03T22:07:27.831Z,496.4
2023-07-03T22:09:11.492Z,494.9
2023-07-03T22:10:55.203Z,493
2023-07-03T22:12:38.974Z,493.2
2023-07-03T22:14:22.596Z,494
2023-07-03T22:16:06.295Z,490.9
2023-07-03T22:17:49.989Z,485.4
2023-07-03T22:19:33.695Z,484.4
2023-07-03T22:21:17.407Z,485.2
2023-07-03T22:23:01.096Z,484.1
2023-07-03T22:24:44.817Z,484.7
2023-07-03T22:26:28.518Z,484.4
2023-07-03T22:28:12.213Z,486.1